Weather at Rockhampton Airport

Public forecast

Using degrees Celsius for public forecast. Weather courtesy of forecast.io.

Current aviation weather report (METAR) for Rockhampton Airport

2024/02/29 18:00 (retrieved 23 minutes ago)

YBRK 291800Z AUTO 12004KT 9999 // NCD 23/20 Q1014 RF000/0000

Aviation forecast (TAF) for Rockhampton Airport

2024/02/29 18:36 (retrieved 0 seconds ago)

TAF YBRK 291711Z 2918/0118 13005KT 9999 FEW025 FM292300 11008KT 9999 SCT035 FM010300 08012KT CAVOK FM011000 10006KT 9999 FEW025